createdAt,value
2023-10-10T00:00:28.615Z,8.48
2023-10-10T00:03:19.543Z,8.48
2023-10-10T00:05:47.891Z,8.47
2023-10-10T00:08:18.130Z,8.47
2023-10-10T00:10:52.840Z,8.48
2023-10-10T00:13:21.185Z,8.48
2023-10-10T00:15:52.999Z,8.48
2023-10-10T00:18:21.174Z,8.48
2023-10-10T00:21:09.083Z,8.50
2023-10-10T00:23:48.501Z,8.49
2023-10-10T00:26:24.353Z,8.51
2023-10-10T00:28:56.465Z,8.51
2023-10-10T00:31:30.297Z,8.53
2023-10-10T00:33:58.284Z,8.54
2023-10-10T00:36:44.401Z,8.54
2023-10-10T00:39:12.546Z,8.54
2023-10-10T00:41:56.144Z,8.54
2023-10-10T00:44:26.507Z,8.55
2023-10-10T00:46:57.807Z,8.55
2023-10-10T00:49:26.855Z,8.56
2023-10-10T00:52:02.825Z,8.55
2023-10-10T00:54:33.710Z,8.55
2023-10-10T00:57:05.223Z,8.56
2023-10-10T00:59:37.162Z,8.57
2023-10-10T01:02:11.887Z,8.56
2023-10-10T01:04:49.639Z,8.57
2023-10-10T01:07:22.893Z,8.58
2023-10-10T01:09:57.327Z,8.58
2023-10-10T01:12:30.281Z,8.58
2023-10-10T01:14:59.095Z,8.58
2023-10-10T01:17:30.962Z,8.58
2023-10-10T01:20:17.061Z,8.59
2023-10-10T01:22:50.531Z,8.60
2023-10-10T01:25:42.681Z,8.61
2023-10-10T01:28:21.600Z,8.63
2023-10-10T01:30:54.272Z,8.63
2023-10-10T01:33:30.344Z,8.62
2023-10-10T01:35:59.604Z,8.63
2023-10-10T01:38:33.600Z,8.64
2023-10-10T01:41:16.945Z,8.65
2023-10-10T01:43:47.672Z,8.65
2023-10-10T01:46:31.462Z,8.65
2023-10-10T01:48:59.200Z,8.66
2023-10-10T01:51:30.761Z,8.66
2023-10-10T01:53:58.930Z,8.67
2023-10-10T01:56:29.769Z,8.67
2023-10-10T01:58:58.524Z,8.68
2023-10-10T02:01:28.669Z,8.67
2023-10-10T02:03:56.562Z,8.68
2023-10-10T02:06:29.117Z,8.67
2023-10-10T02:09:13.547Z,8.68
2023-10-10T02:11:51.162Z,8.68
2023-10-10T02:14:20.539Z,8.70
2023-10-10T02:16:55.426Z,8.69
2023-10-10T02:19:35.084Z,8.70
2023-10-10T02:22:20.522Z,8.69
2023-10-10T02:24:51.261Z,8.67
2023-10-10T02:27:23.513Z,8.68
2023-10-10T02:29:51.333Z,8.67
2023-10-10T02:32:22.796Z,8.65
2023-10-10T02:35:11.133Z,8.64
2023-10-10T02:37:47.425Z,8.64
2023-10-10T02:40:16.467Z,8.64
2023-10-10T02:43:11.331Z,8.65
2023-10-10T02:45:45.957Z,8.66
2023-10-10T02:48:22.050Z,8.68
2023-10-10T02:50:52.948Z,8.68
2023-10-10T02:53:21.228Z,8.69
2023-10-10T02:55:52.991Z,8.69
2023-10-10T02:58:21.849Z,8.69
2023-10-10T03:00:54.265Z,8.71
2023-10-10T03:03:22.778Z,8.70
2023-10-10T03:05:55.848Z,8.68
2023-10-10T03:08:38.365Z,8.69
2023-10-10T03:11:27.571Z,8.69
2023-10-10T03:14:02.336Z,8.70
2023-10-10T03:16:42.974Z,8.70
2023-10-10T03:19:11.684Z,8.69
2023-10-10T03:21:52.346Z,8.70
2023-10-10T03:24:24.034Z,8.70
2023-10-10T03:27:10.910Z,8.70
2023-10-10T03:29:48.615Z,8.70
2023-10-10T03:32:34.077Z,8.71
2023-10-10T03:35:07.798Z,8.71
2023-10-10T03:37:55.571Z,8.72
2023-10-10T03:40:49.560Z,8.72
2023-10-10T03:43:36.856Z,8.70
2023-10-10T03:46:24.080Z,8.70
2023-10-10T03:49:10.961Z,8.68
2023-10-10T03:51:57.706Z,8.69
2023-10-10T03:54:45.083Z,8.69
2023-10-10T03:57:31.848Z,8.69
2023-10-10T04:00:19.683Z,8.68
2023-10-10T04:03:06.668Z,8.67
2023-10-10T04:05:53.586Z,8.67
2023-10-10T04:08:40.741Z,8.68
2023-10-10T04:11:30.716Z,8.68
2023-10-10T04:14:17.879Z,8.67
2023-10-10T04:17:05.157Z,8.68
2023-10-10T04:19:52.414Z,8.68
2023-10-10T04:22:38.814Z,8.69
2023-10-10T04:25:26.488Z,8.70
2023-10-10T04:28:12.756Z,8.69
2023-10-10T04:30:59.795Z,8.70
2023-10-10T04:33:46.047Z,8.71
2023-10-10T04:36:32.923Z,8.72
2023-10-10T04:39:19.065Z,8.72
2023-10-10T04:42:06.348Z,8.73
2023-10-10T04:44:52.748Z,8.74
2023-10-10T04:47:39.566Z,8.73
2023-10-10T04:50:27.778Z,8.74
2023-10-10T04:53:15.018Z,8.74
2023-10-10T04:56:01.808Z,8.75
2023-10-10T04:58:48.431Z,8.76
2023-10-10T05:01:35.034Z,8.78
2023-10-10T05:04:21.899Z,8.79
2023-10-10T05:07:08.701Z,8.79
2023-10-10T05:09:55.481Z,8.80
2023-10-10T05:12:42.425Z,8.82
2023-10-10T05:15:29.557Z,8.85
2023-10-10T05:18:16.240Z,8.87
2023-10-10T05:21:03.141Z,8.90
2023-10-10T05:23:31.750Z,8.92
2023-10-10T05:26:00.929Z,8.94
2023-10-10T05:28:32.096Z,8.97
2023-10-10T05:31:04.177Z,8.98
2023-10-10T05:33:37.601Z,9.01
2023-10-10T05:36:08.398Z,9.04
2023-10-10T05:38:40.856Z,9.08
2023-10-10T05:41:11.806Z,9.11
2023-10-10T05:43:40.989Z,9.13
2023-10-10T05:46:10.382Z,9.15
2023-10-10T05:48:38.970Z,9.20
2023-10-10T05:51:10.061Z,9.25
2023-10-10T05:53:38.242Z,9.28
2023-10-10T05:56:17.251Z,9.33
2023-10-10T05:58:46.561Z,9.39
2023-10-10T06:01:15.805Z,9.45
2023-10-10T06:03:47.246Z,9.51
2023-10-10T06:06:17.045Z,9.54
2023-10-10T06:08:46.326Z,9.61
2023-10-10T06:11:18.257Z,9.64
2023-10-10T06:13:47.649Z,9.66
2023-10-10T06:16:18.596Z,9.67
2023-10-10T06:18:48.480Z,9.69
2023-10-10T06:21:19.764Z,9.71
2023-10-10T06:23:49.787Z,9.73
2023-10-10T06:26:22.797Z,9.76
2023-10-10T06:28:54.879Z,9.77
2023-10-10T06:31:25.372Z,9.82
2023-10-10T06:33:53.686Z,9.87
2023-10-10T06:36:21.551Z,9.92
2023-10-10T06:39:06.841Z,9.95
2023-10-10T06:41:48.907Z,10.00
2023-10-10T06:44:34.203Z,10.05
2023-10-10T06:47:10.375Z,10.10
2023-10-10T06:49:45.419Z,10.11
2023-10-10T06:52:19.801Z,10.14
2023-10-10T06:54:55.581Z,10.16
2023-10-10T06:57:53.378Z,10.21
2023-10-10T07:00:22.651Z,10.24
2023-10-10T07:02:54.655Z,10.29
2023-10-10T07:05:27.983Z,10.33
2023-10-10T07:08:00.284Z,10.37
2023-10-10T07:10:35.303Z,10.41
2023-10-10T07:13:04.685Z,10.45
2023-10-10T07:15:36.904Z,10.48
2023-10-10T07:18:16.170Z,10.51
2023-10-10T07:21:04.624Z,10.55
2023-10-10T07:23:40.713Z,10.54
2023-10-10T07:26:20.988Z,10.51
2023-10-10T07:28:50.189Z,10.51
2023-10-10T07:31:19.051Z,10.55
2023-10-10T07:33:56.930Z,10.58
2023-10-10T07:36:26.473Z,10.65
2023-10-10T07:39:15.603Z,10.72
2023-10-10T07:41:46.536Z,10.82
2023-10-10T07:44:23.614Z,10.90
2023-10-10T07:47:11.474Z,10.97
2023-10-10T07:50:00.112Z,11.08
2023-10-10T07:52:28.452Z,11.17
2023-10-10T07:55:04.506Z,11.26
2023-10-10T07:57:54.818Z,11.36
2023-10-10T08:00:28.885Z,11.45
2023-10-10T08:02:57.312Z,11.53
2023-10-10T08:05:26.780Z,11.64
2023-10-10T08:07:54.724Z,11.75
2023-10-10T08:10:39.908Z,11.84
2023-10-10T08:13:14.626Z,11.92
2023-10-10T08:15:56.482Z,12.01
2023-10-10T08:18:51.810Z,12.07
2023-10-10T08:21:23.700Z,12.22
2023-10-10T08:23:58.210Z,12.38
2023-10-10T08:26:27.879Z,12.48
2023-10-10T08:28:57.213Z,12.66
2023-10-10T08:31:25.351Z,12.74
2023-10-10T08:33:53.646Z,12.81
2023-10-10T08:36:25.081Z,12.92
2023-10-10T08:38:57.559Z,13.00
2023-10-10T08:41:32.466Z,13.07
2023-10-10T08:44:02.941Z,13.15
2023-10-10T08:46:32.917Z,13.22
2023-10-10T08:49:05.092Z,13.32
2023-10-10T08:51:36.155Z,13.35
2023-10-10T08:54:12.633Z,13.33
2023-10-10T08:57:00.623Z,13.34
2023-10-10T08:59:30.785Z,13.37
2023-10-10T09:02:21.622Z,13.47
2023-10-10T09:04:52.196Z,13.61
2023-10-10T09:07:29.187Z,13.77
2023-10-10T09:10:06.788Z,13.96
2023-10-10T09:12:54.359Z,14.17
2023-10-10T09:15:23.605Z,14.33
2023-10-10T09:17:56.967Z,14.45
2023-10-10T09:20:33.787Z,14.48
2023-10-10T09:23:06.042Z,14.60
2023-10-10T09:25:43.827Z,14.64
2023-10-10T09:28:16.853Z,14.67
2023-10-10T09:31:00.932Z,14.68
2023-10-10T09:33:34.868Z,14.66
2023-10-10T09:36:17.543Z,14.67
2023-10-10T09:38:47.642Z,14.71
2023-10-10T09:41:33.035Z,14.75
2023-10-10T09:44:26.746Z,14.73
2023-10-10T09:47:10.058Z,14.74
2023-10-10T09:53:02.553Z,14.85
2023-10-10T09:56:08.640Z,14.95
2023-10-10T09:59:32.302Z,15.02
2023-10-10T10:02:09.370Z,15.06
2023-10-10T10:04:45.719Z,15.14
2023-10-10T10:08:11.484Z,15.20
2023-10-10T10:11:13.671Z,15.21
2023-10-10T10:14:21.320Z,15.32
2023-10-10T10:17:17.180Z,15.37
2023-10-10T10:20:33.678Z,15.44
2023-10-10T10:23:02.396Z,15.53
2023-10-10T10:28:30.249Z,15.54
2023-10-10T10:31:07.236Z,15.52
2023-10-10T10:36:37.447Z,15.51
2023-10-10T10:39:45.485Z,15.47
2023-10-10T10:42:25.640Z,15.46
2023-10-10T10:45:35.987Z,15.39
2023-10-10T10:48:34.987Z,15.36
2023-10-10T10:54:51.156Z,15.46
2023-10-10T10:57:49.767Z,15.70
2023-10-10T11:04:09.568Z,16.15
2023-10-10T11:07:05.021Z,16.22
2023-10-10T11:09:35.834Z,16.12
2023-10-10T11:12:23.208Z,16.03
2023-10-10T11:14:54.929Z,15.97
2023-10-10T11:17:25.973Z,15.90
2023-10-10T11:19:55.843Z,15.92
2023-10-10T11:22:42.896Z,15.92
2023-10-10T11:25:28.542Z,15.91
2023-10-10T11:31:16.101Z,16.00
2023-10-10T11:33:56.891Z,15.99
2023-10-10T11:36:41.350Z,15.94
2023-10-10T11:39:33.643Z,15.85
2023-10-10T11:42:13.314Z,15.76
2023-10-10T11:44:47.322Z,15.69
2023-10-10T11:47:28.749Z,15.63
2023-10-10T11:50:06.861Z,15.62
2023-10-10T11:52:35.767Z,15.64
2023-10-10T11:58:19.552Z,15.69
2023-10-10T12:01:13.752Z,15.59
2023-10-10T12:03:42.991Z,15.50
2023-10-10T12:06:15.771Z,15.40
2023-10-10T12:08:51.983Z,15.30
2023-10-10T12:11:26.718Z,15.21
2023-10-10T12:14:25.818Z,15.10
2023-10-10T12:17:13.725Z,15.05
2023-10-10T12:19:52.339Z,15.03
2023-10-10T12:22:24.917Z,15.04
2023-10-10T12:25:17.691Z,15.03
2023-10-10T12:28:02.763Z,14.98
2023-10-10T12:30:37.147Z,14.90
2023-10-10T12:36:34.401Z,14.74
2023-10-10T12:39:09.464Z,14.69
2023-10-10T12:48:18.134Z,14.80
2023-10-10T12:50:51.645Z,14.91
2023-10-10T12:53:52.828Z,15.04
2023-10-10T12:56:38.923Z,15.22
2023-10-10T12:59:26.618Z,15.40
2023-10-10T13:08:00.651Z,15.95
2023-10-10T13:10:36.944Z,16.05
2023-10-10T13:13:37.177Z,16.06
2023-10-10T13:16:24.890Z,16.04
2023-10-10T13:18:55.212Z,16.00
2023-10-10T13:21:30.981Z,15.97
2023-10-10T13:23:59.598Z,16.14
2023-10-10T13:26:37.595Z,16.30
2023-10-10T13:29:14.744Z,16.37
2023-10-10T13:31:57.518Z,16.47
2023-10-10T13:34:34.205Z,16.48
2023-10-10T13:37:09.080Z,16.49
2023-10-10T13:39:50.090Z,16.52
2023-10-10T13:42:23.180Z,16.54
2023-10-10T13:45:13.736Z,16.56
2023-10-10T13:48:13.831Z,16.57
2023-10-10T13:50:55.786Z,16.50
2023-10-10T13:53:26.099Z,16.46
2023-10-10T13:56:13.427Z,16.40
2023-10-10T13:58:51.710Z,16.35
2023-10-10T14:01:31.261Z,16.31
2023-10-10T14:04:06.574Z,16.30
2023-10-10T14:07:07.011Z,16.32
2023-10-10T14:09:47.962Z,16.37
2023-10-10T14:12:22.089Z,16.41
2023-10-10T14:14:50.295Z,16.44
2023-10-10T14:17:20.924Z,16.44
2023-10-10T14:20:03.084Z,16.35
2023-10-10T14:22:41.744Z,16.39
2023-10-10T14:25:25.375Z,16.44
2023-10-10T14:27:53.118Z,16.53
2023-10-10T14:39:56.017Z,16.58
2023-10-10T14:42:45.843Z,16.49
2023-10-10T14:46:01.028Z,16.44
2023-10-10T14:48:36.624Z,16.44
2023-10-10T14:51:10.585Z,16.39
2023-10-10T14:53:49.567Z,16.31
2023-10-10T14:56:21.743Z,16.19
2023-10-10T14:58:51.421Z,16.10
2023-10-10T15:01:24.536Z,15.99
2023-10-10T15:04:11.150Z,15.89
2023-10-10T15:06:44.984Z,15.81
2023-10-10T15:09:20.928Z,15.75
2023-10-10T15:11:54.459Z,15.68
2023-10-10T15:14:23.322Z,15.67
2023-10-10T15:16:53.582Z,15.67
2023-10-10T15:19:21.470Z,15.65
2023-10-10T15:21:51.149Z,15.66
2023-10-10T15:24:24.920Z,15.66
2023-10-10T15:27:22.033Z,15.62
2023-10-10T15:29:51.090Z,15.56
2023-10-10T15:32:19.221Z,15.50
2023-10-10T15:34:52.978Z,15.42
2023-10-10T15:37:27.836Z,15.36
2023-10-10T15:40:00.128Z,15.30
2023-10-10T15:42:30.300Z,15.23
2023-10-10T15:45:07.191Z,15.15
2023-10-10T15:47:44.114Z,15.07
2023-10-10T15:50:21.010Z,14.96
2023-10-10T15:52:55.978Z,14.87
2023-10-10T15:55:35.307Z,14.79
2023-10-10T15:58:08.018Z,14.71
2023-10-10T16:00:36.485Z,14.60
2023-10-10T16:03:08.242Z,14.51
2023-10-10T16:05:42.915Z,14.43
2023-10-10T16:08:13.750Z,14.31
2023-10-10T16:10:43.284Z,14.21
2023-10-10T16:13:14.654Z,14.10
2023-10-10T16:15:42.586Z,14.00
2023-10-10T16:18:11.172Z,13.90
2023-10-10T16:20:42.448Z,13.79
2023-10-10T16:23:13.803Z,13.69
2023-10-10T16:25:52.004Z,13.60
2023-10-10T16:28:23.829Z,13.48
2023-10-10T16:30:54.645Z,13.40
2023-10-10T16:33:24.968Z,13.32
2023-10-10T16:35:55.402Z,13.24
2023-10-10T16:38:25.428Z,13.17
2023-10-10T16:40:56.719Z,13.11
2023-10-10T16:43:25.610Z,13.03
2023-10-10T16:45:53.730Z,12.97
2023-10-10T16:48:21.700Z,12.91
2023-10-10T16:50:52.297Z,12.87
2023-10-10T16:53:20.157Z,12.82
2023-10-10T16:55:47.887Z,12.76
2023-10-10T16:58:15.977Z,12.70
2023-10-10T17:00:50.194Z,12.66
2023-10-10T17:03:18.402Z,12.62
2023-10-10T17:05:53.542Z,12.59
2023-10-10T17:08:22.705Z,12.56
2023-10-10T17:10:52.525Z,12.54
2023-10-10T17:13:21.366Z,12.51
2023-10-10T17:15:59.433Z,12.51
2023-10-10T17:18:28.859Z,12.51
2023-10-10T17:21:01.698Z,12.50
2023-10-10T17:23:30.104Z,12.48
2023-10-10T17:25:58.727Z,12.47
2023-10-10T17:28:29.071Z,12.43
2023-10-10T17:30:58.027Z,12.42
2023-10-10T17:33:27.793Z,12.40
2023-10-10T17:35:56.954Z,12.37
2023-10-10T17:38:25.099Z,12.35
2023-10-10T17:40:53.296Z,12.34
2023-10-10T17:43:22.476Z,12.33
2023-10-10T17:45:50.827Z,12.31
2023-10-10T17:48:18.860Z,12.31
2023-10-10T17:50:48.220Z,12.29
2023-10-10T17:53:16.443Z,12.28
2023-10-10T17:55:50.818Z,12.29
2023-10-10T17:58:19.808Z,12.29
2023-10-10T18:00:57.296Z,12.30
2023-10-10T18:03:26.655Z,12.31
2023-10-10T18:05:55.697Z,12.31
2023-10-10T18:08:23.628Z,12.33
2023-10-10T18:10:51.494Z,12.32
2023-10-10T18:13:19.482Z,12.30
2023-10-10T18:15:47.698Z,12.29
2023-10-10T18:18:17.278Z,12.26
2023-10-10T18:20:48.331Z,12.24
2023-10-10T18:23:17.555Z,12.23
2023-10-10T18:25:45.659Z,12.19
2023-10-10T18:28:25.328Z,12.17
2023-10-10T18:30:58.145Z,12.15
2023-10-10T18:33:28.205Z,12.13
2023-10-10T18:35:56.421Z,12.11
2023-10-10T18:38:24.277Z,12.08
2023-10-10T18:40:54.688Z,12.07
2023-10-10T18:43:23.881Z,12.05
2023-10-10T18:45:54.576Z,12.02
2023-10-10T18:48:28.915Z,12.02
2023-10-10T18:50:57.506Z,12.02
2023-10-10T18:53:27.307Z,12.03
2023-10-10T18:55:56.403Z,12.01
2023-10-10T18:58:24.329Z,12.01
2023-10-10T19:00:54.708Z,12.01
2023-10-10T19:03:23.790Z,12.00
2023-10-10T19:05:52.229Z,11.99
2023-10-10T19:08:21.030Z,11.98
2023-10-10T19:10:51.962Z,11.95
2023-10-10T19:13:21.021Z,11.92
2023-10-10T19:15:49.163Z,11.90
2023-10-10T19:18:17.736Z,11.88
2023-10-10T19:20:48.018Z,11.86
2023-10-10T19:23:16.272Z,11.84
2023-10-10T19:25:47.814Z,11.81
2023-10-10T19:28:17.573Z,11.78
2023-10-10T19:30:47.209Z,11.76
2023-10-10T19:33:16.361Z,11.74
2023-10-10T19:35:45.718Z,11.73
2023-10-10T19:38:14.097Z,11.71
2023-10-10T19:40:44.823Z,11.68
2023-10-10T19:43:16.329Z,11.66
2023-10-10T19:45:46.709Z,11.64
2023-10-10T19:48:18.387Z,11.63
2023-10-10T19:50:48.839Z,11.61
2023-10-10T19:53:17.424Z,11.60
2023-10-10T19:55:50.459Z,11.58
2023-10-10T19:58:22.172Z,11.58
2023-10-10T20:00:50.479Z,11.57
2023-10-10T20:03:28.103Z,11.57
2023-10-10T20:05:57.939Z,11.58
2023-10-10T20:08:25.845Z,11.59
2023-10-10T20:10:55.530Z,11.59
2023-10-10T20:13:23.651Z,11.60
2023-10-10T20:15:53.893Z,11.61
2023-10-10T20:18:22.099Z,11.62
2023-10-10T20:20:50.310Z,11.62
2023-10-10T20:23:18.010Z,11.62
2023-10-10T20:25:45.765Z,11.63
2023-10-10T20:28:14.865Z,11.63
2023-10-10T20:30:45.004Z,11.64
2023-10-10T20:33:17.511Z,11.64
2023-10-10T20:35:46.337Z,11.65
2023-10-10T20:38:20.669Z,11.66
2023-10-10T20:40:49.118Z,11.68
2023-10-10T20:43:17.020Z,11.69
2023-10-10T20:45:45.087Z,11.69
2023-10-10T20:48:22.807Z,11.70
2023-10-10T20:50:51.377Z,11.71
2023-10-10T20:53:20.997Z,11.73
2023-10-10T20:55:49.960Z,11.73
2023-10-10T20:58:17.955Z,11.75
2023-10-10T21:00:46.175Z,11.76
2023-10-10T21:03:15.646Z,11.78
2023-10-10T21:05:48.343Z,11.79
2023-10-10T21:08:18.836Z,11.79
2023-10-10T21:10:47.102Z,11.78
2023-10-10T21:13:15.590Z,11.78
2023-10-10T21:15:44.077Z,11.79
2023-10-10T21:18:12.612Z,11.80
2023-10-10T21:20:56.574Z,11.80
2023-10-10T21:23:28.626Z,11.79
2023-10-10T21:25:56.537Z,11.80
2023-10-10T21:28:24.262Z,11.81
2023-10-10T21:30:52.848Z,11.83
2023-10-10T21:33:20.909Z,11.83
2023-10-10T21:35:50.893Z,11.84
2023-10-10T21:38:21.848Z,11.83
2023-10-10T21:40:50.742Z,11.85
2023-10-10T21:43:19.167Z,11.87
2023-10-10T21:45:47.386Z,11.88
2023-10-10T21:48:19.015Z,11.90
2023-10-10T21:50:46.961Z,11.93
2023-10-10T21:53:15.857Z,11.93
2023-10-10T21:55:44.136Z,11.95
2023-10-10T21:58:15.047Z,11.95
2023-10-10T22:00:43.219Z,11.97
2023-10-10T22:03:49.177Z,11.98
2023-10-10T22:06:19.242Z,11.99
2023-10-10T22:14:18.715Z,12.01
2023-10-10T22:16:47.398Z,12.03
2023-10-10T22:19:15.870Z,12.04
2023-10-10T22:21:44.371Z,12.05
2023-10-10T22:24:15.766Z,12.07
2023-10-10T22:26:44.142Z,12.10
2023-10-10T22:29:12.897Z,12.11
2023-10-10T22:31:43.473Z,12.13
2023-10-10T22:34:11.892Z,12.15
2023-10-10T22:36:40.204Z,12.17
2023-10-10T22:39:10.208Z,12.19
2023-10-10T22:41:38.692Z,12.21
2023-10-10T22:44:07.385Z,12.21
2023-10-10T22:46:35.727Z,12.24
2023-10-10T22:49:07.358Z,12.25
2023-10-10T22:51:37.543Z,12.22
2023-10-10T22:54:07.378Z,12.26
2023-10-10T22:56:35.823Z,12.25
2023-10-10T22:59:08.728Z,12.28
2023-10-10T23:01:37.317Z,12.29
2023-10-10T23:04:08.815Z,12.30
2023-10-10T23:06:38.117Z,12.30
2023-10-10T23:09:09.556Z,12.30
2023-10-10T23:11:38.076Z,12.30
2023-10-10T23:14:06.535Z,12.30
2023-10-10T23:16:36.676Z,12.31
2023-10-10T23:19:07.167Z,12.32
2023-10-10T23:21:36.021Z,12.34
2023-10-10T23:24:07.442Z,12.35
2023-10-10T23:26:35.716Z,12.37
2023-10-10T23:29:04.489Z,12.39
2023-10-10T23:31:32.701Z,12.41
2023-10-10T23:34:02.758Z,12.42
2023-10-10T23:36:37.412Z,12.42
2023-10-10T23:39:09.915Z,12.43
2023-10-10T23:41:38.460Z,12.42
2023-10-10T23:44:10.919Z,12.44
2023-10-10T23:46:39.316Z,12.44
2023-10-10T23:49:09.213Z,12.44
2023-10-10T23:51:37.492Z,12.44
2023-10-10T23:54:06.259Z,12.44
2023-10-10T23:56:35.523Z,12.41
2023-10-10T23:59:04.052Z,12.43
